Time;durP1;ratioP1;P1;durP2;ratioP2;P2;SDS_P1;SDS_P2;PMS_P1;PMS_P2;Temp;Humidity;BMP_temperature;BMP_pressure;BME280_temperature;BME280_humidity;BME280_pressure;Samples;Min_cycle;Max_cycle;Signal;HPM_P1;HPM_P2
2022/02/12 00:00:29;;;;;;;15.73;7.70;;;4.80;64.30;;;;;;5038036;28;20021;-50
2022/02/12 00:02:55;;;;;;;14.82;7.68;;;4.70;64.90;;;;;;5038444;28;20025;-52
2022/02/12 00:05:24;;;;;;;12.20;6.80;;;4.70;64.40;;;;;;5038534;28;20036;-50
2022/02/12 00:07:53;;;;;;;13.68;6.75;;;4.70;65.10;;;;;;5038339;28;20393;-53
2022/02/12 00:10:19;;;;;;;13.00;6.70;;;4.70;65.10;;;;;;5038575;28;20068;-52
2022/02/12 00:12:45;;;;;;;10.73;6.20;;;4.60;64.50;;;;;;5038514;28;20033;-53
2022/02/12 00:15:12;;;;;;;13.65;6.53;;;4.60;64.30;;;;;;5038240;28;20025;-53
2022/02/12 00:17:37;;;;;;;13.05;5.97;;;4.60;64.40;;;;;;5038609;28;20469;-54
2022/02/12 00:20:05;;;;;;;10.93;6.45;;;4.60;64.30;;;;;;5037962;28;20125;-52
2022/02/12 00:22:31;;;;;;;10.63;7.00;;;4.50;64.50;;;;;;5038234;28;20583;-51
2022/02/12 00:24:57;;;;;;;10.13;6.65;;;4.50;64.40;;;;;;5037862;28;20035;-54
2022/02/12 00:27:23;;;;;;;10.30;6.22;;;4.50;64.30;;;;;;5038151;28;20469;-53
2022/02/12 00:29:49;;;;;;;12.13;6.63;;;4.50;63.70;;;;;;5037983;28;20021;-52
2022/02/12 00:32:15;;;;;;;12.73;7.10;;;4.40;63.70;;;;;;5037573;28;20033;-54
2022/02/12 00:34:41;;;;;;;14.23;7.20;;;4.30;65.10;;;;;;5037678;28;20045;-53
2022/02/12 00:37:07;;;;;;;12.52;6.63;;;4.30;64.90;;;;;;5037670;28;20080;-53
2022/02/12 00:39:32;;;;;;;10.98;5.88;;;4.30;65.20;;;;;;5037692;28;20017;-53
2022/02/12 00:41:58;;;;;;;12.48;6.65;;;4.30;65.10;;;;;;5037572;28;20018;-52
2022/02/12 00:44:24;;;;;;;14.30;6.22;;;4.30;65.60;;;;;;5037920;28;20454;-53
2022/02/12 00:46:51;;;;;;;9.63;5.80;;;4.40;64.70;;;;;;5037575;28;20113;-53
2022/02/12 00:49:17;;;;;;;9.90;6.20;;;4.40;64.70;;;;;;5037580;28;20017;-51
2022/02/12 00:51:43;;;;;;;11.75;6.43;;;4.40;64.90;;;;;;5037746;28;20021;-54
2022/02/12 00:54:09;;;;;;;11.20;6.00;;;4.40;65.10;;;;;;5037721;28;20025;-54
2022/02/12 00:56:35;;;;;;;11.70;6.40;;;4.40;65.00;;;;;;5037620;28;20029;-54
2022/02/12 00:59:00;;;;;;;12.55;6.25;;;4.30;64.70;;;;;;5037441;28;20053;-54
2022/02/12 01:01:26;;;;;;;11.77;6.45;;;4.30;65.30;;;;;;5037742;28;20033;-55
2022/02/12 01:03:53;;;;;;;13.23;6.38;;;4.30;64.20;;;;;;5037555;28;20032;-54
2022/02/12 01:06:20;;;;;;;11.98;7.25;;;4.30;64.10;;;;;;5037329;28;20037;-54
2022/02/12 01:08:46;;;;;;;11.10;7.30;;;4.30;64.30;;;;;;5037575;28;20021;-51
2022/02/12 01:11:13;;;;;;;13.15;7.15;;;4.20;64.20;;;;;;5037469;28;20021;-55
2022/02/12 01:13:40;;;;;;;10.10;6.68;;;4.20;64.60;;;;;;5037253;28;20013;-55
2022/02/12 01:16:07;;;;;;;10.05;6.57;;;4.10;64.40;;;;;;5037447;28;20029;-55
2022/02/12 01:18:33;;;;;;;10.90;6.15;;;4.10;65.00;;;;;;5037606;28;20442;-51
2022/02/12 01:21:00;;;;;;;11.25;6.65;;;4.00;64.90;;;;;;5037151;28;20057;-52
2022/02/12 01:23:25;;;;;;;13.50;7.30;;;4.00;65.60;;;;;;5037363;28;20025;-52
2022/02/12 01:25:51;;;;;;;11.38;7.07;;;4.00;64.20;;;;;;5037547;28;20081;-50
2022/02/12 01:28:21;;;;;;;10.98;7.13;;;3.90;65.50;;;;;;5037152;28;20017;-50
2022/02/12 01:30:47;;;;;;;10.20;7.15;;;3.90;65.40;;;;;;5037165;28;20022;-53
2022/02/12 01:33:15;;;;;;;13.77;7.50;;;3.90;64.30;;;;;;5037355;28;20424;-53
2022/02/12 01:35:41;;;;;;;9.93;6.10;;;3.80;64.90;;;;;;5037380;28;20486;-52
2022/02/12 01:38:08;;;;;;;13.45;7.05;;;3.80;65.10;;;;;;5037489;28;20075;-55
2022/02/12 01:40:34;;;;;;;11.05;7.15;;;3.80;64.30;;;;;;5037321;28;20030;-55
2022/02/12 01:43:02;;;;;;;12.05;6.85;;;3.70;65.30;;;;;;5037137;28;20057;-52
2022/02/12 01:45:30;;;;;;;12.98;7.35;;;3.70;64.50;;;;;;5037156;28;20036;-55
2022/02/12 01:47:55;;;;;;;12.18;7.10;;;3.60;64.30;;;;;;5037144;28;20025;-53
2022/02/12 01:50:22;;;;;;;12.23;8.23;;;3.60;63.90;;;;;;5036977;28;20030;-54
2022/02/12 01:52:48;;;;;;;14.18;7.80;;;3.60;64.70;;;;;;5037111;28;20051;-53
2022/02/12 01:55:14;;;;;;;13.02;7.82;;;3.60;64.50;;;;;;5036992;28;20500;-54
2022/02/12 01:57:40;;;;;;;16.70;8.63;;;3.50;65.20;;;;;;5037116;28;20077;-54
2022/02/12 02:00:08;;;;;;;14.63;8.82;;;3.50;63.90;;;;;;5036868;28;20025;-54
2022/02/12 02:02:37;;;;;;;12.70;7.50;;;3.50;64.40;;;;;;5036890;28;20493;-52
2022/02/12 02:05:04;;;;;;;11.70;7.60;;;3.50;64.30;;;;;;5036982;28;20036;-50
2022/02/12 02:07:30;;;;;;;12.35;7.15;;;3.50;65.00;;;;;;5037210;28;20052;-53
2022/02/12 02:09:56;;;;;;;10.75;7.07;;;3.50;64.00;;;;;;5036858;28;20065;-54
2022/02/12 02:12:21;;;;;;;12.02;6.45;;;3.50;63.90;;;;;;5037063;28;20014;-52
2022/02/12 02:14:47;;;;;;;10.35;6.15;;;3.50;64.30;;;;;;5035535;28;20025;-53
2022/02/12 02:17:13;;;;;;;12.65;6.60;;;3.40;65.00;;;;;;5036950;28;20031;-54
2022/02/12 02:19:39;;;;;;;12.20;7.20;;;3.40;64.50;;;;;;5036747;28;20033;-53
2022/02/12 02:22:05;;;;;;;13.02;7.55;;;3.40;64.30;;;;;;5036435;28;20073;-50
2022/02/12 02:24:31;;;;;;;10.60;6.45;;;3.40;65.30;;;;;;5039634;28;20034;-52
2022/02/12 02:27:14;;;;;;;11.38;6.93;;;3.40;64.30;;;;;;5040471;28;20049;-53
2022/02/12 02:29:41;;;;;;;12.45;6.97;;;3.40;64.10;;;;;;5040263;28;20068;-54
2022/02/12 02:32:09;;;;;;;11.30;7.22;;;3.30;64.70;;;;;;5040177;28;20018;-54
2022/02/12 02:34:35;;;;;;;13.38;7.60;;;3.40;64.80;;;;;;5040364;28;20450;-53
2022/02/12 02:37:01;;;;;;;12.05;7.75;;;3.30;64.90;;;;;;5040093;28;20542;-54
2022/02/12 02:39:27;;;;;;;13.57;7.38;;;3.30;66.20;;;;;;5040284;28;20072;-53
2022/02/12 02:41:53;;;;;;;12.13;7.35;;;3.30;64.90;;;;;;5039713;28;20056;-54
2022/02/12 02:44:19;;;;;;;10.43;6.72;;;3.30;64.20;;;;;;5040006;28;20033;-51
2022/02/12 02:46:45;;;;;;;11.02;6.80;;;3.20;65.30;;;;;;5039725;28;20112;-53
2022/02/12 02:49:11;;;;;;;13.13;7.25;;;3.20;64.70;;;;;;5039665;28;20060;-53
2022/02/12 02:57:05;;;;;;;12.60;6.85;;;3.20;64.60;;;;;;5039733;28;20113;-53
2022/02/12 02:59:31;;;;;;;11.30;7.07;;;3.20;65.90;;;;;;5039598;28;20057;-54
2022/02/12 03:01:57;;;;;;;12.48;6.68;;;3.10;65.40;;;;;;5039959;28;20034;-50
2022/02/12 03:04:24;;;;;;;13.02;6.97;;;3.10;64.10;;;;;;5039500;28;20096;-55
2022/02/12 03:06:51;;;;;;;12.30;6.50;;;3.10;65.50;;;;;;5039652;28;20083;-53
2022/02/12 03:09:17;;;;;;;11.55;6.93;;;3.10;65.90;;;;;;5039782;28;20052;-52
2022/02/12 03:11:43;;;;;;;12.48;7.55;;;3.10;65.00;;;;;;5039330;28;20109;-55
2022/02/12 03:14:09;;;;;;;13.15;7.38;;;3.00;64.80;;;;;;5039343;28;20049;-54
2022/02/12 03:16:36;;;;;;;11.38;6.25;;;3.00;65.20;;;;;;5039561;28;20086;-53
2022/02/12 03:19:03;;;;;;;12.68;6.93;;;2.90;64.60;;;;;;5039425;28;20021;-55
2022/02/12 03:21:28;;;;;;;13.27;6.30;;;2.90;66.40;;;;;;5038889;28;20045;-55
2022/02/12 03:23:54;;;;;;;11.85;6.57;;;2.90;66.50;;;;;;5039171;28;20033;-51
2022/02/12 03:26:20;;;;;;;11.07;6.82;;;2.80;65.40;;;;;;5039001;28;20037;-52
2022/02/12 03:28:46;;;;;;;11.63;6.85;;;2.80;65.40;;;;;;5038888;28;20021;-54
2022/02/12 03:31:12;;;;;;;11.07;6.32;;;2.90;65.50;;;;;;5039006;28;20052;-54
2022/02/12 03:33:38;;;;;;;13.27;7.20;;;2.90;66.70;;;;;;5038913;28;20026;-49
2022/02/12 03:36:04;;;;;;;10.68;6.50;;;2.80;65.80;;;;;;5037919;28;20466;-52
2022/02/12 03:38:33;;;;;;;12.43;6.53;;;2.80;65.10;;;;;;5039101;28;20026;-53
2022/02/12 03:41:00;;;;;;;10.95;7.20;;;2.80;66.50;;;;;;5039026;28;20034;-54
2022/02/12 03:43:28;;;;;;;11.48;6.82;;;2.80;65.60;;;;;;5038893;28;20040;-54
2022/02/12 03:45:54;;;;;;;12.30;6.90;;;2.80;66.50;;;;;;5038766;28;20033;-53
2022/02/12 03:48:22;;;;;;;11.05;6.60;;;2.80;65.40;;;;;;5038936;28;20021;-55
2022/02/12 03:50:48;;;;;;;10.73;6.85;;;2.70;65.50;;;;;;5038877;28;20179;-53
2022/02/12 03:53:14;;;;;;;12.13;7.30;;;2.70;65.90;;;;;;5038634;28;20017;-54
2022/02/12 03:55:40;;;;;;;11.55;6.72;;;2.70;65.90;;;;;;5038778;28;20031;-51
2022/02/12 03:58:12;;;;;;;13.85;6.35;;;2.70;65.40;;;;;;5038689;28;20027;-53
2022/02/12 04:00:39;;;;;;;13.38;7.50;;;2.70;65.20;;;;;;5038435;28;20060;-51
2022/02/12 04:03:06;;;;;;;11.13;7.70;;;2.70;64.10;;;;;;5038073;28;20478;-55
2022/02/12 04:05:33;;;;;;;11.15;6.25;;;2.70;63.90;;;;;;5038281;28;20520;-54
2022/02/12 04:07:59;;;;;;;11.48;6.68;;;2.70;64.90;;;;;;5038705;28;20029;-54
2022/02/12 04:10:25;;;;;;;10.98;6.38;;;2.60;65.40;;;;;;5038225;28;20029;-53
2022/02/12 04:12:54;;;;;;;9.50;6.60;;;2.60;65.30;;;;;;5038186;28;20032;-53
2022/02/12 04:15:22;;;;;;;11.30;7.30;;;2.60;65.40;;;;;;5038243;28;20029;-53
2022/02/12 04:17:49;;;;;;;11.35;6.65;;;2.60;64.10;;;;;;5038173;28;20018;-53
2022/02/12 04:20:17;;;;;;;13.63;6.70;;;2.50;65.00;;;;;;5038230;28;20119;-54
2022/02/12 04:22:43;;;;;;;9.27;6.13;;;2.50;65.70;;;;;;5038250;28;20030;-51
2022/02/12 04:25:12;;;;;;;14.20;6.38;;;2.40;66.40;;;;;;5038225;28;20366;-52
2022/02/12 04:27:38;;;;;;;10.80;7.18;;;2.40;66.40;;;;;;5038237;28;20343;-55
2022/02/12 04:30:05;;;;;;;12.90;6.97;;;2.50;65.20;;;;;;5038195;28;20032;-54
2022/02/12 04:32:31;;;;;;;9.52;5.97;;;2.50;66.20;;;;;;5037806;28;20029;-54
2022/02/12 04:34:59;;;;;;;9.85;6.75;;;2.50;67.30;;;;;;5037913;28;20497;-53
2022/02/12 04:37:26;;;;;;;13.05;7.18;;;2.40;66.10;;;;;;5038002;28;20030;-51
2022/02/12 04:39:52;;;;;;;11.18;7.30;;;2.50;66.00;;;;;;5037744;28;20033;-54
2022/02/12 04:42:18;;;;;;;10.50;7.18;;;2.50;67.40;;;;;;5037878;28;20021;-50
2022/02/12 04:44:48;;;;;;;11.63;7.25;;;2.50;67.20;;;;;;5037871;28;20045;-53
2022/02/12 04:47:14;;;;;;;13.07;6.70;;;2.50;68.00;;;;;;5037715;28;20108;-52
2022/02/12 04:49:40;;;;;;;11.20;6.40;;;2.50;67.40;;;;;;5037856;28;20021;-55
2022/02/12 04:52:09;;;;;;;13.15;6.00;;;2.50;65.80;;;;;;5037716;28;20018;-54
2022/02/12 04:54:35;;;;;;;11.02;6.30;;;2.50;65.80;;;;;;5038001;28;20013;-54
2022/02/12 04:57:01;;;;;;;10.48;6.03;;;2.50;65.50;;;;;;5037569;28;20057;-55
2022/02/12 04:59:27;;;;;;;11.75;6.43;;;2.50;65.60;;;;;;5037659;28;20021;-53
2022/02/12 05:01:53;;;;;;;9.98;5.85;;;2.50;66.00;;;;;;5036227;28;20029;-52
2022/02/12 05:04:20;;;;;;;10.70;6.03;;;2.40;66.30;;;;;;5037711;28;20113;-51
2022/02/12 05:06:46;;;;;;;9.48;5.80;;;2.40;66.50;;;;;;5037354;28;20044;-53
2022/02/12 05:09:13;;;;;;;10.35;6.60;;;2.40;66.50;;;;;;5037569;28;20053;-54
2022/02/12 05:11:41;;;;;;;10.93;6.10;;;2.40;67.20;;;;;;5037166;28;20378;-53
2022/02/12 05:14:08;;;;;;;11.43;6.13;;;2.40;66.30;;;;;;5037542;28;20071;-54
2022/02/12 05:16:33;;;;;;;10.43;5.70;;;2.40;67.10;;;;;;5037428;28;20033;-52
2022/02/12 05:19:00;;;;;;;9.45;5.40;;;2.40;66.40;;;;;;5037336;28;20057;-55
2022/02/12 05:21:26;;;;;;;11.65;5.70;;;2.40;67.50;;;;;;5037067;28;20501;-53
2022/02/12 05:23:52;;;;;;;8.68;5.85;;;2.40;67.60;;;;;;5037206;28;20029;-53
2022/02/12 05:26:18;;;;;;;8.38;5.45;;;2.40;67.30;;;;;;5037643;28;20037;-52
2022/02/12 05:28:43;;;;;;;10.93;5.45;;;2.40;67.70;;;;;;5037432;28;20025;-54
2022/02/12 05:31:10;;;;;;;8.13;5.10;;;2.40;68.10;;;;;;5037392;28;20026;-53
2022/02/12 05:33:38;;;;;;;9.45;5.97;;;2.40;67.60;;;;;;5037440;28;20021;-53
2022/02/12 05:36:08;;;;;;;10.13;5.60;;;2.40;67.20;;;;;;5037419;28;20021;-52
2022/02/12 05:38:41;;;;;;;13.27;5.90;;;2.40;68.60;;;;;;5037365;28;20058;-52
2022/02/12 05:41:11;;;;;;;11.65;5.25;;;2.50;68.30;;;;;;5037335;28;20104;-53
2022/02/12 05:43:38;;;;;;;10.73;6.13;;;2.50;67.50;;;;;;5037544;28;20025;-54
2022/02/12 05:46:05;;;;;;;10.00;6.00;;;2.60;66.60;;;;;;5037194;28;20085;-51
2022/02/12 05:48:31;;;;;;;11.40;6.13;;;2.60;66.40;;;;;;5037020;28;20541;-54
2022/02/12 05:50:58;;;;;;;10.75;5.70;;;2.70;68.40;;;;;;5037360;28;20512;-55
2022/02/12 05:53:23;;;;;;;10.45;5.75;;;2.70;69.00;;;;;;5037322;28;20032;-52
2022/02/12 05:55:49;;;;;;;13.10;6.30;;;2.70;67.40;;;;;;5036964;28;20393;-54
2022/02/12 05:58:16;;;;;;;11.30;5.90;;;2.80;67.90;;;;;;5038382;28;20032;-53
2022/02/12 06:00:42;;;;;;;12.43;6.07;;;2.80;66.20;;;;;;5040515;28;20057;-53
2022/02/12 06:03:08;;;;;;;8.63;5.25;;;2.80;67.60;;;;;;5040770;28;20053;-48
2022/02/12 06:05:34;;;;;;;10.55;6.38;;;2.80;67.70;;;;;;5040673;28;20101;-54
2022/02/12 06:08:01;;;;;;;8.98;5.25;;;2.80;68.50;;;;;;5040916;28;20036;-53
2022/02/12 06:10:27;;;;;;;12.20;5.78;;;2.80;67.50;;;;;;5040510;28;20485;-53
2022/02/12 06:12:54;;;;;;;11.18;5.93;;;2.80;68.80;;;;;;5040592;28;20057;-53
2022/02/12 06:15:20;;;;;;;9.57;5.78;;;2.80;67.40;;;;;;5040742;28;20034;-54
2022/02/12 06:17:46;;;;;;;9.70;6.05;;;2.80;65.70;;;;;;5040497;28;20101;-51
2022/02/12 06:20:13;;;;;;;13.63;6.78;;;2.80;65.50;;;;;;5040621;28;20175;-54
2022/02/12 06:22:39;;;;;;;10.75;5.97;;;2.80;65.60;;;;;;5040619;28;20021;-53
2022/02/12 06:25:05;;;;;;;12.02;5.82;;;2.80;67.50;;;;;;5040410;28;20041;-53
2022/02/12 06:27:31;;;;;;;10.68;5.95;;;2.80;67.40;;;;;;5040514;28;20017;-52
2022/02/12 06:29:57;;;;;;;9.57;5.85;;;2.70;67.80;;;;;;5040103;28;20022;-51
2022/02/12 06:32:23;;;;;;;8.77;5.25;;;2.70;67.20;;;;;;5040442;28;20029;-54
2022/02/12 06:34:51;;;;;;;12.52;5.28;;;2.70;67.30;;;;;;5040224;28;20033;-53
2022/02/12 06:37:19;;;;;;;11.32;5.78;;;2.70;67.60;;;;;;5040425;28;20116;-52
2022/02/12 06:39:46;;;;;;;10.05;6.07;;;2.70;67.70;;;;;;5040215;28;20079;-51
2022/02/12 06:42:13;;;;;;;9.10;5.55;;;2.70;69.50;;;;;;5039994;28;20382;-55
2022/02/12 06:44:39;;;;;;;10.77;5.82;;;2.70;68.80;;;;;;5039993;28;20034;-53
2022/02/12 06:47:04;;;;;;;9.45;5.20;;;2.70;69.30;;;;;;5039933;28;20021;-51
2022/02/12 06:49:30;;;;;;;11.35;5.70;;;2.70;68.70;;;;;;5040365;28;20057;-52
2022/02/12 06:51:56;;;;;;;11.57;6.30;;;2.70;68.60;;;;;;5039817;28;20024;-55
2022/02/12 06:54:22;;;;;;;10.65;5.75;;;2.70;67.60;;;;;;5039825;28;20048;-53
2022/02/12 06:56:47;;;;;;;11.93;6.00;;;2.70;68.00;;;;;;5039709;28;20087;-52
2022/02/12 06:59:13;;;;;;;11.13;6.00;;;2.70;68.90;;;;;;5039932;28;20055;-53
2022/02/12 07:01:39;;;;;;;11.60;5.78;;;2.70;68.70;;;;;;5039807;28;20028;-51
2022/02/12 07:04:05;;;;;;;10.73;6.30;;;2.70;68.60;;;;;;5039686;28;20017;-51
2022/02/12 07:06:31;;;;;;;15.48;8.05;;;2.70;66.80;;;;;;5039355;28;20550;-52
2022/02/12 07:08:57;;;;;;;14.40;7.43;;;2.70;66.60;;;;;;5039304;28;20024;-55
2022/02/12 07:11:22;;;;;;;19.25;9.82;;;2.70;67.70;;;;;;5039612;28;20488;-53
2022/02/12 07:13:48;;;;;;;30.70;15.38;;;2.70;68.00;;;;;;5039475;28;20044;-53
2022/02/12 07:16:14;;;;;;;23.77;12.07;;;2.70;66.30;;;;;;5039838;28;20405;-54
2022/02/12 07:18:40;;;;;;;13.55;7.30;;;2.70;66.50;;;;;;5039424;28;20085;-54
2022/02/12 07:21:08;;;;;;;10.57;6.07;;;2.70;66.40;;;;;;5039021;28;20099;-54
2022/02/12 07:23:34;;;;;;;9.65;5.63;;;2.70;66.90;;;;;;5039139;28;20056;-55
2022/02/12 07:26:00;;;;;;;9.10;5.47;;;2.60;68.00;;;;;;5039270;28;20481;-54
2022/02/12 07:28:27;;;;;;;14.07;6.88;;;2.50;67.70;;;;;;5039042;28;20033;-52
2022/02/12 07:30:55;;;;;;;9.32;5.53;;;2.60;66.60;;;;;;5038830;28;20092;-52
2022/02/12 07:33:22;;;;;;;10.23;5.63;;;2.50;66.80;;;;;;5038863;28;20481;-52
2022/02/12 07:35:49;;;;;;;12.75;7.80;;;2.60;67.20;;;;;;5039186;28;20428;-54
2022/02/12 07:38:15;;;;;;;12.45;9.30;;;2.60;67.10;;;;;;5038885;28;20048;-55
2022/02/12 07:40:41;;;;;;;13.05;8.57;;;2.60;65.30;;;;;;5038801;28;20033;-53
2022/02/12 07:43:07;;;;;;;13.50;7.88;;;2.60;66.70;;;;;;5039022;28;20030;-54
2022/02/12 07:45:33;;;;;;;14.65;7.53;;;2.60;66.10;;;;;;5038634;28;20032;-54
2022/02/12 07:47:59;;;;;;;12.15;6.93;;;2.70;67.40;;;;;;5038754;28;20030;-53
2022/02/12 07:50:25;;;;;;;12.45;6.97;;;2.70;67.70;;;;;;5038673;28;20018;-54
2022/02/12 07:52:51;;;;;;;12.75;7.53;;;2.70;68.20;;;;;;5038835;28;20493;-54
2022/02/12 07:55:18;;;;;;;14.05;7.80;;;2.70;68.60;;;;;;5038516;28;20132;-50
2022/02/12 07:57:44;;;;;;;11.60;6.93;;;2.80;69.30;;;;;;5038570;28;20017;-52
2022/02/12 08:00:10;;;;;;;10.45;6.60;;;2.90;67.50;;;;;;5038450;28;20080;-54
2022/02/12 08:02:36;;;;;;;11.20;7.10;;;2.90;69.40;;;;;;5038583;28;20030;-54
2022/02/12 08:05:02;;;;;;;13.85;7.38;;;3.00;69.00;;;;;;5038530;28;20159;-54
2022/02/12 08:07:28;;;;;;;14.00;7.53;;;3.10;69.80;;;;;;5038395;28;20363;-52
2022/02/12 08:12:52;;;;;;;12.68;7.95;;;3.10;69.00;;;;;;5038498;28;20028;-54
2022/02/12 08:15:18;;;;;;;11.57;6.90;;;3.20;67.80;;;;;;5038276;28;20026;-51
2022/02/12 08:17:44;;;;;;;9.95;6.95;;;3.20;69.40;;;;;;5038273;28;20567;-53
2022/02/12 08:20:10;;;;;;;12.25;6.85;;;3.20;68.20;;;;;;5037787;28;20053;-51
2022/02/12 08:22:36;;;;;;;14.93;7.15;;;3.30;68.20;;;;;;5037619;28;20557;-54
2022/02/12 08:25:03;;;;;;;13.43;7.43;;;3.30;66.90;;;;;;5037963;28;20124;-55
2022/02/12 08:27:29;;;;;;;14.45;8.27;;;3.40;67.70;;;;;;5037735;28;20029;-55
2022/02/12 08:29:55;;;;;;;17.70;8.75;;;3.40;66.70;;;;;;5038034;28;20045;-53
2022/02/12 08:32:22;;;;;;;13.75;9.20;;;3.40;68.20;;;;;;5038168;28;20076;-54
2022/02/12 08:34:48;;;;;;;18.67;9.63;;;3.50;67.40;;;;;;5038147;28;20034;-51
2022/02/12 08:37:14;;;;;;;13.50;8.55;;;3.50;68.00;;;;;;5037957;28;20028;-51
2022/02/12 08:39:40;;;;;;;15.70;8.95;;;3.60;68.30;;;;;;5037884;28;20029;-51
2022/02/12 08:42:07;;;;;;;14.88;8.52;;;3.70;67.90;;;;;;5037842;28;20025;-54
2022/02/12 08:44:34;;;;;;;18.98;9.50;;;3.70;69.00;;;;;;5037873;28;20089;-53
2022/02/12 08:47:00;;;;;;;14.82;8.70;;;3.80;67.10;;;;;;5037840;28;20025;-52
2022/02/12 08:49:26;;;;;;;13.55;8.23;;;3.90;67.90;;;;;;5037757;28;20018;-51
2022/02/12 08:51:51;;;;;;;14.18;7.95;;;3.90;68.30;;;;;;5038042;28;20032;-50
2022/02/12 08:54:18;;;;;;;12.07;7.22;;;3.90;67.90;;;;;;5037607;28;20049;-52
2022/02/12 08:56:45;;;;;;;13.32;7.75;;;4.00;67.70;;;;;;5038107;28;20075;-52
2022/02/12 08:59:12;;;;;;;11.02;7.43;;;4.00;68.30;;;;;;5037528;28;20400;-53
2022/02/12 09:01:40;;;;;;;14.52;7.53;;;4.20;69.20;;;;;;5038008;28;20049;-53
2022/02/12 09:04:10;;;;;;;13.20;7.40;;;4.50;69.40;;;;;;5037521;28;20113;-50
2022/02/12 09:06:37;;;;;;;11.65;6.35;;;4.80;69.10;;;;;;5037659;28;20021;-53
2022/02/12 09:09:08;;;;;;;12.30;6.75;;;5.10;68.80;;;;;;5037712;28;20049;-51
2022/02/12 09:11:38;;;;;;;13.43;7.53;;;5.40;69.80;;;;;;5037410;28;20389;-54
2022/02/12 09:14:05;;;;;;;12.45;6.22;;;5.80;69.00;;;;;;5037237;28;20030;-56
2022/02/12 09:16:31;;;;;;;11.57;7.30;;;6.30;68.90;;;;;;5037359;28;20025;-54
2022/02/12 09:18:57;;;;;;;10.60;6.45;;;6.70;67.70;;;;;;5037014;28;20544;-54
2022/02/12 09:21:23;;;;;;;11.43;6.38;;;7.00;66.90;;;;;;5037212;28;20131;-53
2022/02/12 09:23:50;;;;;;;12.07;7.38;;;7.20;67.20;;;;;;5037079;28;20103;-55
2022/02/12 09:26:19;;;;;;;10.65;6.68;;;7.60;67.30;;;;;;5037009;28;20026;-54
2022/02/12 09:28:45;;;;;;;10.82;6.57;;;8.00;67.00;;;;;;5037213;28;20360;-53
2022/02/12 09:31:11;;;;;;;11.98;7.15;;;8.20;66.40;;;;;;5037087;28;20377;-55
2022/02/12 09:33:37;;;;;;;11.35;6.47;;;8.30;66.00;;;;;;5039225;28;20025;-55
2022/02/12 09:36:04;;;;;;;14.43;7.43;;;8.30;65.70;;;;;;5040999;28;20025;-54
2022/02/12 09:38:30;;;;;;;11.35;6.70;;;8.30;65.60;;;;;;5041068;28;20055;-55
2022/02/12 09:40:56;;;;;;;11.80;7.60;;;8.30;65.50;;;;;;5040641;28;20021;-55
2022/02/12 09:43:27;;;;;;;13.05;6.68;;;8.20;65.30;;;;;;5040554;28;20485;-54
2022/02/12 09:46:21;;;;;;;12.18;7.35;;;8.10;65.20;;;;;;5041225;28;20045;-50
2022/02/12 09:48:47;;;;;;;12.20;7.20;;;8.10;65.70;;;;;;5041142;28;20474;-53
2022/02/12 09:51:13;;;;;;;12.18;7.50;;;8.30;66.20;;;;;;5040937;28;20021;-55
2022/02/12 09:53:39;;;;;;;12.75;8.65;;;8.50;65.80;;;;;;5040776;28;20032;-55
2022/02/12 09:56:05;;;;;;;13.15;7.68;;;8.80;66.00;;;;;;5040767;28;20032;-53
2022/02/12 09:58:31;;;;;;;11.95;7.20;;;9.20;66.30;;;;;;5040660;28;20497;-54
2022/02/12 10:00:58;;;;;;;15.68;8.07;;;9.70;66.20;;;;;;5040944;28;20029;-52
2022/02/12 10:03:23;;;;;;;12.30;6.93;;;10.20;65.50;;;;;;5040596;28;20033;-53
2022/02/12 10:05:51;;;;;;;11.77;6.88;;;10.50;64.30;;;;;;5040645;28;20029;-53
2022/02/12 10:08:17;;;;;;;13.05;7.18;;;10.60;63.70;;;;;;5040607;28;20021;-56
2022/02/12 10:10:45;;;;;;;12.27;7.10;;;10.60;63.90;;;;;;5040439;28;20018;-56
2022/02/12 10:13:28;;;;;;;13.50;7.30;;;10.50;63.50;;;;;;5040403;28;20129;-56
2022/02/12 10:15:56;;;;;;;12.85;7.10;;;10.50;63.60;;;;;;5040872;28;20457;-53
2022/02/12 10:18:27;;;;;;;12.07;7.63;;;10.40;63.30;;;;;;5040561;28;20053;-55
2022/02/12 10:20:54;;;;;;;13.32;7.50;;;10.20;63.50;;;;;;5040180;28;20072;-56
2022/02/12 10:23:23;;;;;;;12.27;7.15;;;10.20;64.00;;;;;;5040238;28;20061;-55
2022/02/12 10:26:10;;;;;;;13.80;7.30;;;10.20;63.90;;;;;;5039941;28;20087;-53
2022/02/12 10:28:40;;;;;;;12.70;6.93;;;10.20;64.00;;;;;;5039936;28;20051;-52
2022/02/12 10:31:06;;;;;;;11.80;7.15;;;10.10;64.20;;;;;;5040538;28;20491;-57
2022/02/12 10:33:41;;;;;;;11.02;6.82;;;10.10;64.30;;;;;;5039938;28;20017;-51
2022/02/12 10:36:11;;;;;;;11.55;7.30;;;10.20;64.90;;;;;;5040109;28;20040;-55
2022/02/12 10:38:36;;;;;;;10.50;6.80;;;10.80;65.70;;;;;;5039992;28;20512;-56
2022/02/12 10:41:11;;;;;;;12.73;7.65;;;11.50;64.60;;;;;;5040080;28;20112;-54
2022/02/12 10:43:38;;;;;;;12.27;7.25;;;11.90;63.70;;;;;;5039675;28;20022;-53
2022/02/12 10:46:05;;;;;;;12.43;7.63;;;11.80;62.20;;;;;;5039975;28;20030;-56
2022/02/12 10:48:35;;;;;;;12.20;7.60;;;11.40;62.10;;;;;;5040072;28;20102;-54
2022/02/12 10:51:02;;;;;;;13.77;7.18;;;11.10;62.30;;;;;;5039688;28;20481;-55
2022/02/12 10:53:28;;;;;;;13.88;7.20;;;11.00;63.00;;;;;;5039716;28;20045;-54
2022/02/12 10:56:01;;;;;;;11.50;6.53;;;11.30;64.20;;;;;;5039821;28;20034;-57
2022/02/12 10:58:27;;;;;;;11.68;6.80;;;11.80;63.50;;;;;;5039410;28;20036;-54
2022/02/12 11:00:54;;;;;;;14.63;6.35;;;12.60;64.00;;;;;;5039544;28;20386;-56
2022/02/12 11:03:21;;;;;;;13.05;7.45;;;13.70;63.20;;;;;;5039698;28;20085;-58
2022/02/12 11:05:52;;;;;;;10.63;6.47;;;14.70;62.70;;;;;;5039279;28;20497;-57
2022/02/12 11:08:22;;;;;;;12.15;6.70;;;15.60;62.20;;;;;;5039458;28;20099;-58
2022/02/12 11:10:48;;;;;;;10.90;6.55;;;16.60;60.60;;;;;;5039604;28;20079;-58
2022/02/12 11:13:15;;;;;;;13.30;6.68;;;17.40;60.40;;;;;;5039380;28;20017;-58
2022/02/12 11:15:41;;;;;;;12.45;7.30;;;18.10;55.50;;;;;;5039571;28;20026;-58
2022/02/12 11:18:11;;;;;;;10.00;6.78;;;18.50;55.10;;;;;;5039524;28;20079;-59
2022/02/12 11:20:39;;;;;;;9.05;6.10;;;18.90;52.70;;;;;;5039123;28;20099;-58
2022/02/12 11:23:37;;;;;;;8.98;5.88;;;19.30;51.90;;;;;;5039430;28;20036;-58
2022/02/12 11:26:02;;;;;;;10.20;6.25;;;19.70;50.30;;;;;;5037888;28;20095;-57
2022/02/12 11:28:30;;;;;;;11.70;6.20;;;19.50;51.90;;;;;;5039138;28;20720;-59
2022/02/12 11:31:28;;;;;;;11.52;6.18;;;19.30;50.40;;;;;;5039269;28;20032;-57
2022/02/12 11:34:06;;;;;;;8.93;5.72;;;19.10;46.90;;;;;;5037942;28;20041;-59
2022/02/12 11:36:33;;;;;;;11.60;6.07;;;19.30;51.80;;;;;;5038991;28;20056;-59
2022/02/12 11:39:18;;;;;;;9.85;5.50;;;19.70;49.40;;;;;;5037692;28;21248;-58
2022/02/12 11:41:49;;;;;;;8.90;4.93;;;19.90;47.20;;;;;;5038688;28;20501;-58
2022/02/12 11:44:47;;;;;;;8.95;4.70;;;20.00;47.60;;;;;;5038622;28;20021;-59
2022/02/12 11:47:14;;;;;;;9.50;5.18;;;20.00;47.20;;;;;;5038972;28;20443;-59
2022/02/12 11:49:45;;;;;;;7.40;4.72;;;20.00;47.70;;;;;;5038958;28;20029;-58
2022/02/12 11:52:16;;;;;;;8.95;5.22;;;20.10;47.20;;;;;;5038614;28;20018;-57
2022/02/12 11:54:58;;;;;;;9.88;4.40;;;19.70;47.10;;;;;;5038693;28;20440;-58
2022/02/12 11:57:27;;;;;;;9.07;3.33;;;19.50;45.80;;;;;;5038017;28;20021;-58
2022/02/12 12:00:12;;;;;;;5.50;2.90;;;18.50;43.50;;;;;;5038727;28;20052;-57
2022/02/12 12:02:43;;;;;;;8.57;3.10;;;17.70;45.10;;;;;;5038194;28;20087;-56
2022/02/12 12:05:19;;;;;;;8.60;3.00;;;16.70;44.10;;;;;;5038071;28;20025;-56
2022/02/12 12:08:06;;;;;;;8.93;3.38;;;16.20;44.90;;;;;;5038939;28;20019;-57
2022/02/12 12:10:36;;;;;;;8.90;2.92;;;15.60;46.90;;;;;;5038465;28;20030;-56
2022/02/12 12:13:26;;;;;;;5.53;2.28;;;15.40;47.50;;;;;;5038673;28;20040;-55
2022/02/12 12:16:14;;;;;;;8.60;2.80;;;15.60;48.20;;;;;;5037995;28;20081;-56
2022/02/12 12:18:46;;;;;;;5.20;2.38;;;14.90;47.90;;;;;;5038719;28;20057;-53
2022/02/12 12:21:14;;;;;;;6.80;2.47;;;15.30;47.40;;;;;;5038291;28;20095;-55
2022/02/12 12:23:42;;;;;;;5.85;2.30;;;16.10;48.20;;;;;;5038431;28;20053;-57
2022/02/12 12:26:09;;;;;;;4.88;2.38;;;16.90;47.80;;;;;;5038432;28;20037;-57
2022/02/12 12:28:40;;;;;;;6.75;2.60;;;17.20;42.10;;;;;;5038392;28;20014;-56
2022/02/12 12:31:16;;;;;;;6.75;2.60;;;17.30;44.00;;;;;;5038122;28;20026;-57
2022/02/12 12:33:46;;;;;;;9.23;3.13;;;16.50;44.00;;;;;;5038280;28;20033;-56
2022/02/12 12:36:17;;;;;;;6.82;2.40;;;15.80;45.40;;;;;;5038065;28;20037;-57
2022/02/12 12:38:46;;;;;;;5.72;2.35;;;15.00;46.20;;;;;;5038236;28;20036;-57
2022/02/12 12:41:29;;;;;;;7.50;2.38;;;14.20;46.40;;;;;;5038322;28;20025;-56
2022/02/12 12:44:17;;;;;;;6.90;2.20;;;13.80;48.60;;;;;;5038130;28;20037;-57
2022/02/12 12:46:44;;;;;;;6.95;2.53;;;13.60;50.80;;;;;;5037724;28;20033;-57
2022/02/12 12:49:12;;;;;;;5.93;2.50;;;13.20;51.30;;;;;;5036634;28;20104;-56
2022/02/12 12:51:49;;;;;;;6.18;2.58;;;12.80;51.10;;;;;;5036448;28;20021;-56
2022/02/12 12:54:15;;;;;;;6.97;2.20;;;12.70;52.10;;;;;;5037099;28;20021;-55
2022/02/12 12:56:41;;;;;;;6.13;2.35;;;12.60;52.40;;;;;;5037432;28;20025;-55